sensor_id;sensor_type;location;lat;lon;timestamp;temperature;humidity
216;HTU21D;45701;48.81287245;9.14186865;2022-07-21T00:00:25;19.94;94.89
216;HTU21D;45701;48.81287245;9.14186865;2022-07-21T00:02:53;19.84;95.10
216;HTU21D;45701;48.81287245;9.14186865;2022-07-21T00:05:20;20.12;94.50
216;HTU21D;45701;48.81287245;9.14186865;2022-07-21T00:07:47;20.15;93.54
216;HTU21D;45701;48.81287245;9.14186865;2022-07-21T00:10:14;20.22;93.74
216;HTU21D;45701;48.81287245;9.14186865;2022-07-21T00:12:41;20.31;91.93
216;HTU21D;45701;48.81287245;9.14186865;2022-07-21T00:15:09;20.41;91.79
216;HTU21D;45701;48.81287245;9.14186865;2022-07-21T00:17:37;20.39;90.83
216;HTU21D;45701;48.81287245;9.14186865;2022-07-21T00:20:06;20.17;91.86
216;HTU21D;45701;48.81287245;9.14186865;2022-07-21T00:22:34;20.10;93.53
216;HTU21D;45701;48.81287245;9.14186865;2022-07-21T00:25:00;20.21;92.89
216;HTU21D;45701;48.81287245;9.14186865;2022-07-21T00:27:27;20.35;89.63
216;HTU21D;45701;48.81287245;9.14186865;2022-07-21T00:29:54;20.20;90.76
216;HTU21D;45701;48.81287245;9.14186865;2022-07-21T00:32:20;20.19;91.40
216;HTU21D;45701;48.81287245;9.14186865;2022-07-21T00:34:48;20.27;91.18
216;HTU21D;45701;48.81287245;9.14186865;2022-07-21T00:37:15;20.27;91.53
216;HTU21D;45701;48.81287245;9.14186865;2022-07-21T00:39:42;20.32;91.98
216;HTU21D;45701;48.81287245;9.14186865;2022-07-21T00:42:19;20.09;92.16
216;HTU21D;45701;48.81287245;9.14186865;2022-07-21T00:44:46;19.69;94.88
216;HTU21D;45701;48.81287245;9.14186865;2022-07-21T00:47:13;19.75;95.33
216;HTU21D;45701;48.81287245;9.14186865;2022-07-21T00:49:39;19.69;95.59
216;HTU21D;45701;48.81287245;9.14186865;2022-07-21T00:52:09;19.66;95.89
216;HTU21D;45701;48.81287245;9.14186865;2022-07-21T00:54:35;19.63;96.53
216;HTU21D;45701;48.81287245;9.14186865;2022-07-21T00:57:02;19.66;96.30
216;HTU21D;45701;48.81287245;9.14186865;2022-07-21T00:59:30;19.75;96.20
216;HTU21D;45701;48.81287245;9.14186865;2022-07-21T01:01:57;20.02;95.95
216;HTU21D;45701;48.81287245;9.14186865;2022-07-21T01:04:24;20.28;93.98
216;HTU21D;45701;48.81287245;9.14186865;2022-07-21T01:06:52;20.25;91.47
216;HTU21D;45701;48.81287245;9.14186865;2022-07-21T01:09:21;20.25;91.54
216;HTU21D;45701;48.81287245;9.14186865;2022-07-21T01:11:47;20.01;93.46
216;HTU21D;45701;48.81287245;9.14186865;2022-07-21T01:14:15;19.99;92.91
216;HTU21D;45701;48.81287245;9.14186865;2022-07-21T01:16:42;20.14;93.42
216;HTU21D;45701;48.81287245;9.14186865;2022-07-21T01:19:09;19.96;93.62
216;HTU21D;45701;48.81287245;9.14186865;2022-07-21T01:21:39;19.81;94.46
216;HTU21D;45701;48.81287245;9.14186865;2022-07-21T01:24:07;19.71;95.82
216;HTU21D;45701;48.81287245;9.14186865;2022-07-21T01:26:40;20.05;94.07
216;HTU21D;45701;48.81287245;9.14186865;2022-07-21T01:29:07;20.25;92.79
216;HTU21D;45701;48.81287245;9.14186865;2022-07-21T01:31:34;20.30;91.82
216;HTU21D;45701;48.81287245;9.14186865;2022-07-21T01:34:01;20.18;92.58
216;HTU21D;45701;48.81287245;9.14186865;2022-07-21T01:36:28;20.25;90.39
216;HTU21D;45701;48.81287245;9.14186865;2022-07-21T01:38:56;19.95;92.53
216;HTU21D;45701;48.81287245;9.14186865;2022-07-21T01:41:40;19.74;94.30
216;HTU21D;45701;48.81287245;9.14186865;2022-07-21T01:44:09;19.58;95.55
216;HTU21D;45701;48.81287245;9.14186865;2022-07-21T01:46:38;19.55;96.49
216;HTU21D;45701;48.81287245;9.14186865;2022-07-21T01:49:05;19.88;95.46
216;HTU21D;45701;48.81287245;9.14186865;2022-07-21T01:51:33;20.14;93.69
216;HTU21D;45701;48.81287245;9.14186865;2022-07-21T01:54:01;20.26;92.18
216;HTU21D;45701;48.81287245;9.14186865;2022-07-21T01:56:28;20.31;91.74
216;HTU21D;45701;48.81287245;9.14186865;2022-07-21T01:58:56;20.34;91.41
216;HTU21D;45701;48.81287245;9.14186865;2022-07-21T02:01:25;20.39;90.22
216;HTU21D;45701;48.81287245;9.14186865;2022-07-21T02:03:52;20.43;90.43
216;HTU21D;45701;48.81287245;9.14186865;2022-07-21T02:06:20;20.30;90.28
216;HTU21D;45701;48.81287245;9.14186865;2022-07-21T02:08:46;20.34;92.97
216;HTU21D;45701;48.81287245;9.14186865;2022-07-21T02:11:15;20.55;93.33
216;HTU21D;45701;48.81287245;9.14186865;2022-07-21T02:13:43;20.28;92.31
216;HTU21D;45701;48.81287245;9.14186865;2022-07-21T02:16:10;20.32;94.42
216;HTU21D;45701;48.81287245;9.14186865;2022-07-21T02:18:37;20.42;93.05
216;HTU21D;45701;48.81287245;9.14186865;2022-07-21T02:21:04;20.30;93.64
216;HTU21D;45701;48.81287245;9.14186865;2022-07-21T02:23:31;19.71;95.34
216;HTU21D;45701;48.81287245;9.14186865;2022-07-21T02:25:58;19.60;97.84
216;HTU21D;45701;48.81287245;9.14186865;2022-07-21T02:28:27;19.66;97.74
216;HTU21D;45701;48.81287245;9.14186865;2022-07-21T02:30:54;19.74;97.42
216;HTU21D;45701;48.81287245;9.14186865;2022-07-21T02:33:21;19.65;98.08
216;HTU21D;45701;48.81287245;9.14186865;2022-07-21T02:35:48;19.65;98.33
216;HTU21D;45701;48.81287245;9.14186865;2022-07-21T02:38:15;19.65;97.89
216;HTU21D;45701;48.81287245;9.14186865;2022-07-21T02:40:41;19.74;98.19
216;HTU21D;45701;48.81287245;9.14186865;2022-07-21T02:43:08;19.70;97.94
216;HTU21D;45701;48.81287245;9.14186865;2022-07-21T02:45:36;19.73;98.23
216;HTU21D;45701;48.81287245;9.14186865;2022-07-21T02:48:08;19.71;97.90
216;HTU21D;45701;48.81287245;9.14186865;2022-07-21T02:50:37;19.79;98.20
216;HTU21D;45701;48.81287245;9.14186865;2022-07-21T02:53:06;19.77;98.64
216;HTU21D;45701;48.81287245;9.14186865;2022-07-21T02:55:33;19.90;98.06
216;HTU21D;45701;48.81287245;9.14186865;2022-07-21T02:58:05;20.15;97.17
216;HTU21D;45701;48.81287245;9.14186865;2022-07-21T03:00:33;20.24;95.31
216;HTU21D;45701;48.81287245;9.14186865;2022-07-21T03:03:01;20.34;94.72
216;HTU21D;45701;48.81287245;9.14186865;2022-07-21T03:05:29;20.15;95.30
216;HTU21D;45701;48.81287245;9.14186865;2022-07-21T03:07:56;19.75;95.72
216;HTU21D;45701;48.81287245;9.14186865;2022-07-21T03:10:22;19.82;95.62
216;HTU21D;45701;48.81287245;9.14186865;2022-07-21T03:12:49;20.15;95.63
216;HTU21D;45701;48.81287245;9.14186865;2022-07-21T03:15:16;19.81;95.13
216;HTU21D;45701;48.81287245;9.14186865;2022-07-21T03:17:42;19.65;96.65
216;HTU21D;45701;48.81287245;9.14186865;2022-07-21T03:20:11;19.62;95.90
216;HTU21D;45701;48.81287245;9.14186865;2022-07-21T03:22:38;19.61;97.13
216;HTU21D;45701;48.81287245;9.14186865;2022-07-21T03:25:06;19.67;97.10
216;HTU21D;45701;48.81287245;9.14186865;2022-07-21T03:27:33;19.62;97.37
216;HTU21D;45701;48.81287245;9.14186865;2022-07-21T03:30:03;19.69;96.57
216;HTU21D;45701;48.81287245;9.14186865;2022-07-21T03:32:30;19.72;95.89
216;HTU21D;45701;48.81287245;9.14186865;2022-07-21T03:34:57;19.97;96.04
216;HTU21D;45701;48.81287245;9.14186865;2022-07-21T03:37:25;19.92;95.63
216;HTU21D;45701;48.81287245;9.14186865;2022-07-21T03:39:51;19.81;96.12
216;HTU21D;45701;48.81287245;9.14186865;2022-07-21T03:42:18;19.67;95.98
216;HTU21D;45701;48.81287245;9.14186865;2022-07-21T03:44:45;19.54;95.72
216;HTU21D;45701;48.81287245;9.14186865;2022-07-21T03:47:11;19.48;96.52
216;HTU21D;45701;48.81287245;9.14186865;2022-07-21T03:49:38;19.47;96.89
216;HTU21D;45701;48.81287245;9.14186865;2022-07-21T03:52:05;19.38;95.32
216;HTU21D;45701;48.81287245;9.14186865;2022-07-21T03:54:33;19.56;96.75
216;HTU21D;45701;48.81287245;9.14186865;2022-07-21T03:56:59;19.57;96.68
216;HTU21D;45701;48.81287245;9.14186865;2022-07-21T03:59:26;19.62;94.94
216;HTU21D;45701;48.81287245;9.14186865;2022-07-21T04:01:53;19.77;95.81
216;HTU21D;45701;48.81287245;9.14186865;2022-07-21T04:04:19;19.72;94.47
216;HTU21D;45701;48.81287245;9.14186865;2022-07-21T04:06:46;19.66;95.33
216;HTU21D;45701;48.81287245;9.14186865;2022-07-21T04:09:13;20.00;95.85
216;HTU21D;45701;48.81287245;9.14186865;2022-07-21T04:11:41;20.12;95.47
216;HTU21D;45701;48.81287245;9.14186865;2022-07-21T04:14:07;20.21;95.01
216;HTU21D;45701;48.81287245;9.14186865;2022-07-21T04:16:34;19.97;95.16
216;HTU21D;45701;48.81287245;9.14186865;2022-07-21T04:19:01;19.72;96.91
216;HTU21D;45701;48.81287245;9.14186865;2022-07-21T04:21:27;19.58;97.50
216;HTU21D;45701;48.81287245;9.14186865;2022-07-21T04:23:54;19.62;97.74
216;HTU21D;45701;48.81287245;9.14186865;2022-07-21T04:26:21;19.72;97.45
216;HTU21D;45701;48.81287245;9.14186865;2022-07-21T04:28:49;19.98;96.48
216;HTU21D;45701;48.81287245;9.14186865;2022-07-21T04:31:15;19.75;97.10
216;HTU21D;45701;48.81287245;9.14186865;2022-07-21T04:33:42;19.61;98.55
216;HTU21D;45701;48.81287245;9.14186865;2022-07-21T04:36:09;19.57;97.91
216;HTU21D;45701;48.81287245;9.14186865;2022-07-21T04:38:35;19.51;96.75
216;HTU21D;45701;48.81287245;9.14186865;2022-07-21T04:41:02;19.53;96.58
216;HTU21D;45701;48.81287245;9.14186865;2022-07-21T04:43:29;19.87;95.49
216;HTU21D;45701;48.81287245;9.14186865;2022-07-21T04:45:57;19.99;94.83
216;HTU21D;45701;48.81287245;9.14186865;2022-07-21T04:48:24;20.07;94.86
216;HTU21D;45701;48.81287245;9.14186865;2022-07-21T04:50:50;20.13;94.69
216;HTU21D;45701;48.81287245;9.14186865;2022-07-21T04:53:17;20.07;95.10
216;HTU21D;45701;48.81287245;9.14186865;2022-07-21T04:55:44;19.69;96.25
216;HTU21D;45701;48.81287245;9.14186865;2022-07-21T04:58:11;19.60;96.62
216;HTU21D;45701;48.81287245;9.14186865;2022-07-21T05:00:38;19.71;97.13
216;HTU21D;45701;48.81287245;9.14186865;2022-07-21T05:03:06;19.63;96.17
216;HTU21D;45701;48.81287245;9.14186865;2022-07-21T05:05:32;19.87;96.89
216;HTU21D;45701;48.81287245;9.14186865;2022-07-21T05:07:59;20.15;94.68
216;HTU21D;45701;48.81287245;9.14186865;2022-07-21T05:10:26;20.31;93.65
216;HTU21D;45701;48.81287245;9.14186865;2022-07-21T05:12:52;20.40;93.10
216;HTU21D;45701;48.81287245;9.14186865;2022-07-21T05:15:19;20.44;93.14
216;HTU21D;45701;48.81287245;9.14186865;2022-07-21T05:17:46;20.36;90.72
216;HTU21D;45701;48.81287245;9.14186865;2022-07-21T05:20:14;20.37;90.73
216;HTU21D;45701;48.81287245;9.14186865;2022-07-21T05:22:40;20.42;91.40
216;HTU21D;45701;48.81287245;9.14186865;2022-07-21T05:25:08;20.45;89.50
216;HTU21D;45701;48.81287245;9.14186865;2022-07-21T05:27:34;20.45;89.12
216;HTU21D;45701;48.81287245;9.14186865;2022-07-21T05:30:02;20.49;90.13
216;HTU21D;45701;48.81287245;9.14186865;2022-07-21T05:32:28;20.58;91.31
216;HTU21D;45701;48.81287245;9.14186865;2022-07-21T05:34:55;20.43;90.98
216;HTU21D;45701;48.81287245;9.14186865;2022-07-21T05:37:23;20.34;92.70
216;HTU21D;45701;48.81287245;9.14186865;2022-07-21T05:39:51;20.58;89.97
216;HTU21D;45701;48.81287245;9.14186865;2022-07-21T05:42:17;20.65;88.14
216;HTU21D;45701;48.81287245;9.14186865;2022-07-21T05:44:44;20.69;89.24
216;HTU21D;45701;48.81287245;9.14186865;2022-07-21T05:47:10;20.72;88.57
216;HTU21D;45701;48.81287245;9.14186865;2022-07-21T05:49:37;20.75;89.66
216;HTU21D;45701;48.81287245;9.14186865;2022-07-21T05:52:04;20.77;89.31
216;HTU21D;45701;48.81287245;9.14186865;2022-07-21T05:54:33;20.76;88.63
216;HTU21D;45701;48.81287245;9.14186865;2022-07-21T05:56:59;20.76;88.73
216;HTU21D;45701;48.81287245;9.14186865;2022-07-21T05:59:27;20.73;88.20
216;HTU21D;45701;48.81287245;9.14186865;2022-07-21T06:01:54;20.83;87.61
216;HTU21D;45701;48.81287245;9.14186865;2022-07-21T06:04:21;20.83;86.77
216;HTU21D;45701;48.81287245;9.14186865;2022-07-21T06:06:47;20.85;86.08
216;HTU21D;45701;48.81287245;9.14186865;2022-07-21T06:09:14;20.86;87.22
216;HTU21D;45701;48.81287245;9.14186865;2022-07-21T06:11:42;20.74;87.63
216;HTU21D;45701;48.81287245;9.14186865;2022-07-21T06:14:09;20.77;87.43
216;HTU21D;45701;48.81287245;9.14186865;2022-07-21T06:16:35;20.96;85.03
216;HTU21D;45701;48.81287245;9.14186865;2022-07-21T06:19:02;21.05;84.19
216;HTU21D;45701;48.81287245;9.14186865;2022-07-21T06:21:29;21.08;82.51
216;HTU21D;45701;48.81287245;9.14186865;2022-07-21T06:23:56;21.20;82.28
216;HTU21D;45701;48.81287245;9.14186865;2022-07-21T06:26:23;21.18;82.42
216;HTU21D;45701;48.81287245;9.14186865;2022-07-21T06:28:51;21.39;80.60
216;HTU21D;45701;48.81287245;9.14186865;2022-07-21T06:31:17;21.35;83.61
216;HTU21D;45701;48.81287245;9.14186865;2022-07-21T06:33:44;21.39;81.52
216;HTU21D;45701;48.81287245;9.14186865;2022-07-21T06:36:11;21.28;80.28
216;HTU21D;45701;48.81287245;9.14186865;2022-07-21T06:38:38;21.32;77.63
216;HTU21D;45701;48.81287245;9.14186865;2022-07-21T06:41:04;21.07;79.10
216;HTU21D;45701;48.81287245;9.14186865;2022-07-21T06:43:32;21.04;80.39
216;HTU21D;45701;48.81287245;9.14186865;2022-07-21T06:46:00;21.28;78.74
216;HTU21D;45701;48.81287245;9.14186865;2022-07-21T06:48:27;21.28;79.88
216;HTU21D;45701;48.81287245;9.14186865;2022-07-21T06:50:55;21.36;77.56
216;HTU21D;45701;48.81287245;9.14186865;2022-07-21T06:53:22;21.34;77.60
216;HTU21D;45701;48.81287245;9.14186865;2022-07-21T06:55:49;21.34;76.92
216;HTU21D;45701;48.81287245;9.14186865;2022-07-21T06:58:19;21.42;77.13
216;HTU21D;45701;48.81287245;9.14186865;2022-07-21T07:00:47;21.54;75.01
216;HTU21D;45701;48.81287245;9.14186865;2022-07-21T07:03:16;21.37;76.20
216;HTU21D;45701;48.81287245;9.14186865;2022-07-21T07:05:45;21.32;76.84
216;HTU21D;45701;48.81287245;9.14186865;2022-07-21T07:08:12;21.40;75.70
216;HTU21D;45701;48.81287245;9.14186865;2022-07-21T07:10:39;21.43;76.42
216;HTU21D;45701;48.81287245;9.14186865;2022-07-21T07:13:06;21.75;76.17
216;HTU21D;45701;48.81287245;9.14186865;2022-07-21T07:15:33;21.92;76.85
216;HTU21D;45701;48.81287245;9.14186865;2022-07-21T07:18:00;22.06;74.91
216;HTU21D;45701;48.81287245;9.14186865;2022-07-21T07:20:28;21.99;73.92
216;HTU21D;45701;48.81287245;9.14186865;2022-07-21T07:22:54;21.94;75.81
216;HTU21D;45701;48.81287245;9.14186865;2022-07-21T07:25:21;21.63;73.93
216;HTU21D;45701;48.81287245;9.14186865;2022-07-21T07:27:49;21.81;73.83
216;HTU21D;45701;48.81287245;9.14186865;2022-07-21T07:30:17;22.16;72.16
216;HTU21D;45701;48.81287245;9.14186865;2022-07-21T07:32:44;22.52;73.75
216;HTU21D;45701;48.81287245;9.14186865;2022-07-21T07:35:12;22.79;70.66
216;HTU21D;45701;48.81287245;9.14186865;2022-07-21T07:37:43;22.76;69.22
216;HTU21D;45701;48.81287245;9.14186865;2022-07-21T07:40:13;22.34;71.61
216;HTU21D;45701;48.81287245;9.14186865;2022-07-21T07:42:40;22.40;71.17
216;HTU21D;45701;48.81287245;9.14186865;2022-07-21T07:45:07;22.56;71.86
216;HTU21D;45701;48.81287245;9.14186865;2022-07-21T07:47:34;22.56;67.95
216;HTU21D;45701;48.81287245;9.14186865;2022-07-21T07:50:01;22.63;66.94
216;HTU21D;45701;48.81287245;9.14186865;2022-07-21T07:52:28;22.66;68.74
216;HTU21D;45701;48.81287245;9.14186865;2022-07-21T07:54:56;23.07;70.47
216;HTU21D;45701;48.81287245;9.14186865;2022-07-21T07:57:23;23.13;65.46
216;HTU21D;45701;48.81287245;9.14186865;2022-07-21T07:59:49;23.23;66.94
216;HTU21D;45701;48.81287245;9.14186865;2022-07-21T08:02:16;23.13;67.75
216;HTU21D;45701;48.81287245;9.14186865;2022-07-21T08:04:43;23.21;62.56
216;HTU21D;45701;48.81287245;9.14186865;2022-07-21T08:07:09;23.01;61.79
216;HTU21D;45701;48.81287245;9.14186865;2022-07-21T08:09:36;23.08;62.64
216;HTU21D;45701;48.81287245;9.14186865;2022-07-21T08:12:05;23.31;61.18
216;HTU21D;45701;48.81287245;9.14186865;2022-07-21T08:14:32;23.31;61.41
216;HTU21D;45701;48.81287245;9.14186865;2022-07-21T08:16:58;23.26;62.31
216;HTU21D;45701;48.81287245;9.14186865;2022-07-21T08:19:25;22.97;64.57
216;HTU21D;45701;48.81287245;9.14186865;2022-07-21T08:21:52;22.97;66.33
216;HTU21D;45701;48.81287245;9.14186865;2022-07-21T08:24:19;22.75;65.19
216;HTU21D;45701;48.81287245;9.14186865;2022-07-21T08:26:46;22.52;65.32
216;HTU21D;45701;48.81287245;9.14186865;2022-07-21T08:29:14;22.61;64.96
216;HTU21D;45701;48.81287245;9.14186865;2022-07-21T08:31:40;22.63;65.10
216;HTU21D;45701;48.81287245;9.14186865;2022-07-21T08:34:07;22.64;65.79
216;HTU21D;45701;48.81287245;9.14186865;2022-07-21T08:36:34;22.50;65.60
216;HTU21D;45701;48.81287245;9.14186865;2022-07-21T08:39:00;22.61;65.56
216;HTU21D;45701;48.81287245;9.14186865;2022-07-21T08:41:27;22.53;64.93
216;HTU21D;45701;48.81287245;9.14186865;2022-07-21T08:43:54;22.57;63.69
216;HTU21D;45701;48.81287245;9.14186865;2022-07-21T08:46:23;22.79;62.57
216;HTU21D;45701;48.81287245;9.14186865;2022-07-21T08:48:50;22.69;62.39
216;HTU21D;45701;48.81287245;9.14186865;2022-07-21T08:51:17;22.78;64.80
216;HTU21D;45701;48.81287245;9.14186865;2022-07-21T08:53:44;22.84;63.31
216;HTU21D;45701;48.81287245;9.14186865;2022-07-21T08:56:11;23.09;63.76
216;HTU21D;45701;48.81287245;9.14186865;2022-07-21T08:58:38;23.21;64.06
216;HTU21D;45701;48.81287245;9.14186865;2022-07-21T09:01:05;23.29;63.35
216;HTU21D;45701;48.81287245;9.14186865;2022-07-21T09:03:33;23.49;62.47
216;HTU21D;45701;48.81287245;9.14186865;2022-07-21T09:06:03;23.65;63.81
216;HTU21D;45701;48.81287245;9.14186865;2022-07-21T09:08:30;23.71;60.86
216;HTU21D;45701;48.81287245;9.14186865;2022-07-21T09:11:15;23.72;58.77
216;HTU21D;45701;48.81287245;9.14186865;2022-07-21T09:13:44;23.53;61.13
216;HTU21D;45701;48.81287245;9.14186865;2022-07-21T09:16:11;23.79;60.20
216;HTU21D;45701;48.81287245;9.14186865;2022-07-21T09:18:50;23.88;57.45
216;HTU21D;45701;48.81287245;9.14186865;2022-07-21T09:21:18;23.94;59.43
216;HTU21D;45701;48.81287245;9.14186865;2022-07-21T09:23:45;23.87;60.49
216;HTU21D;45701;48.81287245;9.14186865;2022-07-21T09:26:12;23.91;59.24
216;HTU21D;45701;48.81287245;9.14186865;2022-07-21T09:28:40;23.83;56.68
216;HTU21D;45701;48.81287245;9.14186865;2022-07-21T09:31:09;24.00;54.52
216;HTU21D;45701;48.81287245;9.14186865;2022-07-21T09:33:39;24.04;55.53
216;HTU21D;45701;48.81287245;9.14186865;2022-07-21T09:36:09;24.18;56.57
216;HTU21D;45701;48.81287245;9.14186865;2022-07-21T09:38:39;24.34;52.36
216;HTU21D;45701;48.81287245;9.14186865;2022-07-21T09:41:10;24.35;54.67
216;HTU21D;45701;48.81287245;9.14186865;2022-07-21T09:43:39;24.49;51.08
216;HTU21D;45701;48.81287245;9.14186865;2022-07-21T09:46:14;24.74;54.39
216;HTU21D;45701;48.81287245;9.14186865;2022-07-21T09:48:44;25.00;52.61
216;HTU21D;45701;48.81287245;9.14186865;2022-07-21T09:51:26;24.92;49.72
216;HTU21D;45701;48.81287245;9.14186865;2022-07-21T09:53:59;24.59;49.52
216;HTU21D;45701;48.81287245;9.14186865;2022-07-21T09:56:28;24.62;49.56
216;HTU21D;45701;48.81287245;9.14186865;2022-07-21T09:58:56;24.75;50.68
216;HTU21D;45701;48.81287245;9.14186865;2022-07-21T10:01:24;24.91;49.54
216;HTU21D;45701;48.81287245;9.14186865;2022-07-21T10:03:51;25.06;47.05
216;HTU21D;45701;48.81287245;9.14186865;2022-07-21T10:06:22;25.09;46.68
216;HTU21D;45701;48.81287245;9.14186865;2022-07-21T10:08:49;24.86;48.63
216;HTU21D;45701;48.81287245;9.14186865;2022-07-21T10:11:16;24.21;53.17
216;HTU21D;45701;48.81287245;9.14186865;2022-07-21T10:13:43;23.85;55.48
216;HTU21D;45701;48.81287245;9.14186865;2022-07-21T10:16:11;23.99;54.73
216;HTU21D;45701;48.81287245;9.14186865;2022-07-21T10:18:46;23.95;56.21
216;HTU21D;45701;48.81287245;9.14186865;2022-07-21T10:21:29;24.09;55.23
216;HTU21D;45701;48.81287245;9.14186865;2022-07-21T10:23:56;24.38;53.39
216;HTU21D;45701;48.81287245;9.14186865;2022-07-21T10:26:23;24.59;52.17
216;HTU21D;45701;48.81287245;9.14186865;2022-07-21T10:28:50;24.54;52.39
216;HTU21D;45701;48.81287245;9.14186865;2022-07-21T10:31:18;24.74;52.11
216;HTU21D;45701;48.81287245;9.14186865;2022-07-21T10:33:54;25.04;51.95
216;HTU21D;45701;48.81287245;9.14186865;2022-07-21T10:36:45;24.78;49.31
216;HTU21D;45701;48.81287245;9.14186865;2022-07-21T10:41:56;24.79;50.38
216;HTU21D;45701;48.81287245;9.14186865;2022-07-21T10:44:38;25.02;49.89
216;HTU21D;45701;48.81287245;9.14186865;2022-07-21T10:47:06;25.06;50.85
216;HTU21D;45701;48.81287245;9.14186865;2022-07-21T10:49:48;24.68;51.56
216;HTU21D;45701;48.81287245;9.14186865;2022-07-21T10:55:21;24.78;52.07
216;HTU21D;45701;48.81287245;9.14186865;2022-07-21T10:58:13;24.61;50.41
216;HTU21D;45701;48.81287245;9.14186865;2022-07-21T11:00:44;24.59;50.98
216;HTU21D;45701;48.81287245;9.14186865;2022-07-21T11:03:18;24.54;51.32
216;HTU21D;45701;48.81287245;9.14186865;2022-07-21T11:06:20;24.73;48.71
216;HTU21D;45701;48.81287245;9.14186865;2022-07-21T11:08:50;25.27;47.09
216;HTU21D;45701;48.81287245;9.14186865;2022-07-21T11:11:21;25.45;46.09
216;HTU21D;45701;48.81287245;9.14186865;2022-07-21T11:14:03;25.39;42.71
216;HTU21D;45701;48.81287245;9.14186865;2022-07-21T11:19:39;25.23;43.18
216;HTU21D;45701;48.81287245;9.14186865;2022-07-21T11:22:10;25.19;44.53
216;HTU21D;45701;48.81287245;9.14186865;2022-07-21T11:24:38;25.18;44.60
216;HTU21D;45701;48.81287245;9.14186865;2022-07-21T11:27:08;25.12;44.64
216;HTU21D;45701;48.81287245;9.14186865;2022-07-21T11:29:37;25.03;44.56
216;HTU21D;45701;48.81287245;9.14186865;2022-07-21T11:32:05;25.40;45.19
216;HTU21D;45701;48.81287245;9.14186865;2022-07-21T11:34:40;25.65;43.29
216;HTU21D;45701;48.81287245;9.14186865;2022-07-21T11:37:07;25.39;45.94
216;HTU21D;45701;48.81287245;9.14186865;2022-07-21T11:39:34;25.21;46.30
216;HTU21D;45701;48.81287245;9.14186865;2022-07-21T11:42:02;25.36;47.34
216;HTU21D;45701;48.81287245;9.14186865;2022-07-21T11:44:31;26.02;43.06
216;HTU21D;45701;48.81287245;9.14186865;2022-07-21T11:46:59;26.19;44.03
216;HTU21D;45701;48.81287245;9.14186865;2022-07-21T11:49:26;26.32;42.69
216;HTU21D;45701;48.81287245;9.14186865;2022-07-21T11:51:56;26.95;43.51
216;HTU21D;45701;48.81287245;9.14186865;2022-07-21T11:54:26;26.92;42.96
216;HTU21D;45701;48.81287245;9.14186865;2022-07-21T11:56:54;26.80;42.13
216;HTU21D;45701;48.81287245;9.14186865;2022-07-21T11:59:21;26.56;41.00
216;HTU21D;45701;48.81287245;9.14186865;2022-07-21T12:01:52;26.90;38.55
216;HTU21D;45701;48.81287245;9.14186865;2022-07-21T12:04:37;26.64;40.98
216;HTU21D;45701;48.81287245;9.14186865;2022-07-21T12:07:09;26.93;40.45
216;HTU21D;45701;48.81287245;9.14186865;2022-07-21T12:09:36;27.16;38.04
216;HTU21D;45701;48.81287245;9.14186865;2022-07-21T12:12:04;26.71;40.88
216;HTU21D;45701;48.81287245;9.14186865;2022-07-21T12:14:42;26.25;41.73
216;HTU21D;45701;48.81287245;9.14186865;2022-07-21T12:17:10;26.17;42.56
216;HTU21D;45701;48.81287245;9.14186865;2022-07-21T12:19:37;26.99;39.59
216;HTU21D;45701;48.81287245;9.14186865;2022-07-21T12:22:04;27.58;38.11
216;HTU21D;45701;48.81287245;9.14186865;2022-07-21T12:24:51;27.42;38.88
216;HTU21D;45701;48.81287245;9.14186865;2022-07-21T12:27:19;27.06;40.16
216;HTU21D;45701;48.81287245;9.14186865;2022-07-21T12:29:46;26.99;39.81
216;HTU21D;45701;48.81287245;9.14186865;2022-07-21T12:32:38;27.41;40.90
216;HTU21D;45701;48.81287245;9.14186865;2022-07-21T12:35:05;27.37;43.23
216;HTU21D;45701;48.81287245;9.14186865;2022-07-21T12:37:52;27.43;41.69
216;HTU21D;45701;48.81287245;9.14186865;2022-07-21T12:40:19;27.97;40.27
216;HTU21D;45701;48.81287245;9.14186865;2022-07-21T12:42:47;27.73;40.55
216;HTU21D;45701;48.81287245;9.14186865;2022-07-21T12:45:15;27.96;41.26
216;HTU21D;45701;48.81287245;9.14186865;2022-07-21T12:47:44;27.76;41.04
216;HTU21D;45701;48.81287245;9.14186865;2022-07-21T12:50:30;28.06;39.33
216;HTU21D;45701;48.81287245;9.14186865;2022-07-21T12:52:57;27.98;39.46
216;HTU21D;45701;48.81287245;9.14186865;2022-07-21T12:55:24;27.95;41.20
216;HTU21D;45701;48.81287245;9.14186865;2022-07-21T12:57:50;27.64;42.06
216;HTU21D;45701;48.81287245;9.14186865;2022-07-21T13:00:17;26.82;42.13
216;HTU21D;45701;48.81287245;9.14186865;2022-07-21T13:02:49;26.65;41.48
216;HTU21D;45701;48.81287245;9.14186865;2022-07-21T13:05:17;26.73;42.71
216;HTU21D;45701;48.81287245;9.14186865;2022-07-21T13:07:43;26.05;43.68
216;HTU21D;45701;48.81287245;9.14186865;2022-07-21T13:10:10;26.27;43.84
216;HTU21D;45701;48.81287245;9.14186865;2022-07-21T13:12:37;26.98;42.74
216;HTU21D;45701;48.81287245;9.14186865;2022-07-21T13:15:05;27.58;42.62
216;HTU21D;45701;48.81287245;9.14186865;2022-07-21T13:17:32;27.34;43.13
216;HTU21D;45701;48.81287245;9.14186865;2022-07-21T13:20:00;27.12;41.78
216;HTU21D;45701;48.81287245;9.14186865;2022-07-21T13:22:27;26.84;43.53
216;HTU21D;45701;48.81287245;9.14186865;2022-07-21T13:24:54;26.64;43.99
216;HTU21D;45701;48.81287245;9.14186865;2022-07-21T13:27:21;26.42;44.44
216;HTU21D;45701;48.81287245;9.14186865;2022-07-21T13:29:47;26.67;43.36
216;HTU21D;45701;48.81287245;9.14186865;2022-07-21T13:32:14;26.48;44.61
216;HTU21D;45701;48.81287245;9.14186865;2022-07-21T13:34:41;26.53;42.45
216;HTU21D;45701;48.81287245;9.14186865;2022-07-21T13:37:09;26.50;43.25
216;HTU21D;45701;48.81287245;9.14186865;2022-07-21T13:39:37;26.64;43.50
216;HTU21D;45701;48.81287245;9.14186865;2022-07-21T13:42:04;26.78;42.00
216;HTU21D;45701;48.81287245;9.14186865;2022-07-21T13:44:31;26.58;43.02
216;HTU21D;45701;48.81287245;9.14186865;2022-07-21T13:46:58;26.87;42.13
216;HTU21D;45701;48.81287245;9.14186865;2022-07-21T13:49:24;27.14;41.64